createdAt,value
2019-03-03T00:01:26.623Z,24.33
2019-03-03T00:03:56.338Z,25.80
2019-03-03T00:06:26.013Z,25.77
2019-03-03T00:08:55.814Z,24.67
2019-03-03T00:11:25.551Z,25.37
2019-03-03T00:13:55.294Z,24.03
2019-03-03T00:16:25.026Z,23.93
2019-03-03T00:18:54.809Z,24.47
2019-03-03T00:21:24.491Z,22.70
2019-03-03T00:23:54.198Z,24.57
2019-03-03T00:26:24.003Z,22.73
2019-03-03T00:28:53.684Z,22.70
2019-03-03T00:31:36.528Z,22.90
2019-03-03T00:34:06.298Z,22.60
2019-03-03T00:36:53.477Z,22.33
2019-03-03T00:39:40.712Z,21.13
2019-03-03T00:42:38.462Z,21.20
2019-03-03T00:45:34.131Z,22.10
2019-03-03T00:48:21.462Z,21.87
2019-03-03T00:51:26.665Z,22.93
2019-03-03T00:54:13.732Z,21.33
2019-03-03T00:56:51.047Z,20.70
2019-03-03T00:59:26.132Z,21.67
2019-03-03T01:02:10.697Z,21.30
2019-03-03T01:05:14.202Z,21.17
2019-03-03T01:08:02.951Z,21.13
2019-03-03T01:10:47.310Z,22.47
2019-03-03T01:13:35.930Z,22.53
2019-03-03T01:16:21.469Z,23.33
2019-03-03T01:19:06.546Z,20.93
2019-03-03T01:21:49.943Z,22.20
2019-03-03T01:24:36.917Z,22.70
2019-03-03T01:27:06.634Z,21.70
2019-03-03T01:29:36.315Z,21.77
2019-03-03T01:32:06.168Z,21.20
2019-03-03T01:34:35.818Z,21.17
2019-03-03T01:37:05.743Z,20.47
2019-03-03T01:39:35.426Z,20.77
2019-03-03T01:42:05.191Z,21.73
2019-03-03T01:44:34.861Z,20.37
2019-03-03T01:47:04.640Z,21.10
2019-03-03T01:49:34.352Z,20.70
2019-03-03T01:52:04.098Z,20.50
2019-03-03T01:54:33.763Z,21.30
2019-03-03T01:57:03.468Z,21.90
2019-03-03T01:59:33.139Z,22.43
2019-03-03T02:02:02.894Z,21.10
2019-03-03T02:04:32.618Z,19.93
2019-03-03T02:07:02.361Z,19.43
2019-03-03T02:09:32.239Z,21.13
2019-03-03T02:12:01.965Z,20.83
2019-03-03T02:14:31.851Z,18.77
2019-03-03T02:17:01.674Z,20.83
2019-03-03T02:19:31.583Z,20.43
2019-03-03T02:22:01.294Z,19.20
2019-03-03T02:24:31.079Z,19.97
2019-03-03T02:27:00.829Z,19.83
2019-03-03T02:29:30.537Z,20.33
2019-03-03T02:32:00.275Z,20.50
2019-03-03T02:34:29.983Z,20.00
2019-03-03T02:36:59.740Z,20.47
2019-03-03T02:39:29.423Z,20.23
2019-03-03T02:41:59.213Z,20.97
2019-03-03T02:44:28.947Z,21.10
2019-03-03T02:46:58.672Z,20.80
2019-03-03T02:49:28.425Z,22.10
2019-03-03T02:51:58.116Z,19.80
2019-03-03T02:54:28.158Z,19.77
2019-03-03T02:56:57.801Z,20.17
2019-03-03T02:59:27.567Z,20.60
2019-03-03T03:02:00.945Z,20.83
2019-03-03T03:04:31.868Z,20.27
2019-03-03T03:07:29.503Z,20.33
2019-03-03T03:10:06.943Z,19.43
2019-03-03T03:12:55.626Z,19.70
2019-03-03T03:15:50.600Z,20.10
2019-03-03T03:18:39.176Z,20.30
2019-03-03T03:21:27.791Z,19.53
2019-03-03T03:24:09.075Z,21.70
2019-03-03T03:26:54.409Z,20.73
2019-03-03T03:29:40.034Z,20.17
2019-03-03T03:32:34.477Z,20.20
2019-03-03T03:35:29.579Z,20.27
2019-03-03T03:38:21.381Z,20.00
2019-03-03T03:41:27.928Z,21.13
2019-03-03T03:44:06.723Z,20.57
2019-03-03T03:46:58.132Z,20.63
2019-03-03T03:49:49.630Z,21.43
2019-03-03T03:52:44.442Z,19.97
2019-03-03T03:55:33.227Z,21.27
2019-03-03T03:58:27.786Z,20.67
2019-03-03T04:01:16.395Z,19.30
2019-03-03T04:04:03.439Z,19.10
2019-03-03T04:06:50.836Z,19.07
2019-03-03T04:09:37.897Z,20.57
2019-03-03T04:12:29.733Z,20.37
2019-03-03T04:15:13.824Z,19.07
2019-03-03T04:17:49.729Z,19.17
2019-03-03T04:20:25.919Z,20.60
2019-03-03T04:23:12.513Z,19.63
2019-03-03T04:26:01.099Z,20.10
2019-03-03T04:28:58.606Z,19.73
2019-03-03T04:31:42.774Z,18.70
2019-03-03T04:34:24.626Z,19.03
2019-03-03T04:37:13.158Z,19.53
2019-03-03T04:40:06.841Z,20.70
2019-03-03T04:42:52.165Z,18.57
2019-03-03T04:45:35.906Z,18.50
2019-03-03T04:48:18.570Z,21.20
2019-03-03T04:50:58.035Z,19.13
2019-03-03T04:53:35.523Z,19.73
2019-03-03T04:56:16.421Z,21.43
2019-03-03T04:59:03.463Z,19.00
2019-03-03T05:01:52.052Z,20.37
2019-03-03T05:04:30.366Z,20.23
2019-03-03T05:07:16.139Z,19.17
2019-03-03T05:09:51.728Z,19.53
2019-03-03T05:12:42.588Z,18.47
2019-03-03T05:15:38.705Z,18.77
2019-03-03T05:18:19.400Z,19.03
2019-03-03T05:20:50.757Z,19.10
2019-03-03T05:23:20.510Z,20.13
2019-03-03T05:25:50.235Z,19.80
2019-03-03T05:28:19.930Z,18.60
2019-03-03T05:30:49.783Z,19.03
2019-03-03T05:33:19.533Z,18.67
2019-03-03T05:35:49.232Z,18.67
2019-03-03T05:38:19.071Z,20.00
2019-03-03T05:40:48.735Z,19.60
2019-03-03T05:43:18.498Z,18.57
2019-03-03T05:45:48.223Z,19.73
2019-03-03T05:48:20.159Z,19.07
2019-03-03T05:50:49.916Z,19.27
2019-03-03T05:53:19.615Z,20.17
2019-03-03T05:55:49.348Z,21.67
2019-03-03T05:58:19.113Z,22.20
2019-03-03T06:00:49.157Z,26.43
2019-03-03T06:03:18.857Z,27.60
2019-03-03T06:05:48.596Z,29.27
2019-03-03T06:08:18.380Z,29.53
2019-03-03T06:10:48.037Z,29.50
2019-03-03T06:13:17.845Z,29.93
2019-03-03T06:15:47.550Z,29.47
2019-03-03T06:18:17.265Z,28.23
2019-03-03T06:20:47.044Z,27.97
2019-03-03T06:23:16.809Z,26.37
2019-03-03T06:25:46.675Z,25.93
2019-03-03T06:28:16.424Z,25.87
2019-03-03T06:30:46.155Z,25.43
2019-03-03T06:33:15.838Z,22.80
2019-03-03T06:35:45.756Z,22.27
2019-03-03T06:38:15.448Z,22.40
2019-03-03T06:40:45.186Z,21.13
2019-03-03T06:43:14.956Z,21.60
2019-03-03T06:45:44.845Z,20.83
2019-03-03T06:48:14.546Z,20.23
2019-03-03T06:50:44.321Z,19.87
2019-03-03T06:53:14.088Z,19.03
2019-03-03T06:55:43.787Z,20.07
2019-03-03T06:58:13.867Z,19.03
2019-03-03T07:00:43.702Z,19.17
2019-03-03T07:03:13.405Z,20.10
2019-03-03T07:05:43.062Z,18.67
2019-03-03T07:08:12.884Z,19.80
2019-03-03T07:10:42.665Z,19.70
2019-03-03T07:13:12.530Z,18.33
2019-03-03T07:15:42.373Z,19.17
2019-03-03T07:18:12.131Z,19.67
2019-03-03T07:20:41.835Z,19.53
2019-03-03T07:23:11.819Z,18.53
2019-03-03T07:25:41.518Z,18.67
2019-03-03T07:28:11.543Z,19.37
2019-03-03T07:30:41.226Z,19.17
2019-03-03T07:33:25.670Z,19.00
2019-03-03T07:35:55.372Z,19.43
2019-03-03T07:38:25.140Z,18.93
2019-03-03T07:40:56.172Z,19.90
2019-03-03T07:43:25.890Z,18.90
2019-03-03T07:45:55.565Z,18.53
2019-03-03T07:48:25.242Z,19.53
2019-03-03T07:50:55.026Z,19.37
2019-03-03T07:53:24.944Z,19.80
2019-03-03T07:55:54.636Z,18.83
2019-03-03T07:58:24.437Z,19.10
2019-03-03T08:00:54.566Z,20.47
2019-03-03T08:03:24.388Z,18.83
2019-03-03T08:05:54.086Z,20.20
2019-03-03T08:08:24.416Z,19.37
2019-03-03T08:10:54.210Z,20.73
2019-03-03T08:13:23.938Z,20.80
2019-03-03T08:15:53.882Z,20.17
2019-03-03T08:18:23.884Z,21.50
2019-03-03T08:20:53.629Z,22.73
2019-03-03T08:23:23.483Z,20.83
2019-03-03T08:25:53.251Z,22.20
2019-03-03T08:28:22.941Z,22.60
2019-03-03T08:30:55.176Z,24.13
2019-03-03T08:33:24.939Z,23.20
2019-03-03T08:35:54.719Z,23.53
2019-03-03T08:38:25.466Z,23.30
2019-03-03T08:40:55.212Z,23.90
2019-03-03T08:43:44.007Z,22.80
2019-03-03T08:46:34.798Z,22.53
2019-03-03T08:49:15.323Z,23.90
2019-03-03T08:51:59.677Z,21.83
2019-03-03T08:54:48.504Z,21.30
2019-03-03T08:57:40.152Z,22.03
2019-03-03T09:00:34.689Z,20.90
2019-03-03T09:03:29.314Z,21.63
2019-03-03T09:06:20.795Z,20.03
2019-03-03T09:09:09.378Z,21.43
2019-03-03T09:11:57.567Z,21.10
2019-03-03T09:14:47.925Z,21.33
2019-03-03T09:17:42.510Z,21.63
2019-03-03T09:20:18.324Z,21.87
2019-03-03T09:23:03.637Z,21.70
2019-03-03T09:29:03.864Z,20.70
2019-03-03T09:31:52.507Z,21.07
2019-03-03T09:34:44.815Z,21.77
2019-03-03T09:37:39.808Z,22.53
2019-03-03T09:40:29.806Z,20.50
2019-03-03T09:43:27.356Z,21.10
2019-03-03T09:46:31.106Z,21.17
2019-03-03T09:49:23.747Z,20.30
2019-03-03T09:52:07.956Z,22.73
2019-03-03T09:54:43.111Z,20.73
2019-03-03T09:57:31.121Z,22.10
2019-03-03T10:00:32.121Z,20.13
2019-03-03T10:03:08.747Z,19.97
2019-03-03T10:06:03.432Z,18.57
2019-03-03T10:08:50.421Z,19.60
2019-03-03T10:11:34.026Z,19.60
2019-03-03T10:14:31.771Z,18.07
2019-03-03T10:17:16.438Z,19.77
2019-03-03T10:19:54.743Z,20.17
2019-03-03T10:22:36.495Z,19.00
2019-03-03T10:25:26.887Z,19.03
2019-03-03T10:28:18.933Z,18.80
2019-03-03T10:30:58.180Z,18.47
2019-03-03T10:34:01.655Z,19.33
2019-03-03T10:36:44.103Z,17.83
2019-03-03T10:39:19.713Z,19.30
2019-03-03T10:42:20.198Z,18.47
2019-03-03T10:45:08.823Z,17.80
2019-03-03T10:48:09.867Z,18.60
2019-03-03T10:51:01.922Z,18.37
2019-03-03T10:53:47.270Z,17.53
2019-03-03T10:56:34.436Z,17.83
2019-03-03T10:59:32.269Z,17.63
2019-03-03T11:02:18.670Z,17.70
2019-03-03T11:05:17.299Z,17.53
2019-03-03T11:08:03.476Z,15.43
2019-03-03T11:10:57.394Z,16.43
2019-03-03T11:13:39.947Z,17.00
2019-03-03T11:16:43.482Z,15.93
2019-03-03T11:19:26.821Z,16.40
2019-03-03T11:22:07.624Z,15.40
2019-03-03T11:24:59.306Z,15.73
2019-03-03T11:27:43.728Z,15.20
2019-03-03T11:30:39.439Z,14.97
2019-03-03T11:33:29.102Z,16.37
2019-03-03T11:36:20.524Z,14.43
2019-03-03T11:39:10.065Z,15.00
2019-03-03T11:42:07.463Z,13.80
2019-03-03T11:44:50.171Z,14.90
2019-03-03T11:47:28.765Z,14.10
2019-03-03T11:50:15.509Z,14.53
2019-03-03T11:52:58.382Z,13.10
2019-03-03T11:55:35.527Z,14.20
2019-03-03T11:58:24.415Z,13.63
2019-03-03T12:01:08.600Z,12.33
2019-03-03T12:03:55.871Z,13.17
2019-03-03T12:06:40.194Z,12.00
2019-03-03T12:09:36.107Z,12.90
2019-03-03T12:12:19.885Z,12.60
2019-03-03T12:15:14.297Z,12.53
2019-03-03T12:18:00.066Z,12.57
2019-03-03T12:21:03.935Z,12.50
2019-03-03T12:24:10.520Z,12.70
2019-03-03T12:27:08.146Z,12.23
2019-03-03T12:29:50.969Z,12.70
2019-03-03T12:32:48.466Z,12.07
2019-03-03T12:35:28.359Z,12.03
2019-03-03T12:38:15.836Z,12.67
2019-03-03T12:41:07.684Z,11.67
2019-03-03T12:43:53.072Z,11.40
2019-03-03T12:46:46.659Z,10.67
2019-03-03T12:49:47.522Z,11.03
2019-03-03T12:52:34.711Z,10.70
2019-03-03T12:55:29.318Z,10.97
2019-03-03T12:58:24.167Z,11.07
2019-03-03T13:01:25.399Z,10.70
2019-03-03T13:04:12.826Z,10.17
2019-03-03T13:07:08.121Z,10.23
2019-03-03T13:09:53.125Z,10.33
2019-03-03T13:12:48.657Z,9.30
2019-03-03T13:15:46.038Z,10.07
2019-03-03T13:18:25.136Z,9.23
2019-03-03T13:21:22.727Z,9.83
2019-03-03T13:24:19.983Z,9.43
2019-03-03T13:27:08.850Z,10.17
2019-03-03T13:30:00.618Z,8.43
2019-03-03T13:32:52.179Z,9.63
2019-03-03T13:35:29.195Z,8.37
2019-03-03T13:38:07.494Z,8.00
2019-03-03T13:40:47.987Z,9.47
2019-03-03T13:43:17.790Z,8.90
2019-03-03T13:45:47.664Z,8.47
2019-03-03T13:48:17.539Z,8.37
2019-03-03T13:50:47.935Z,8.63
2019-03-03T13:53:18.004Z,8.23
2019-03-03T13:55:47.853Z,8.63
2019-03-03T13:58:17.703Z,7.60
2019-03-03T14:00:47.422Z,8.23
2019-03-03T14:03:17.359Z,9.10
2019-03-03T14:05:47.228Z,8.10
2019-03-03T14:08:21.598Z,7.77
2019-03-03T14:10:51.305Z,8.43
2019-03-03T14:13:22.400Z,8.17
2019-03-03T14:15:52.215Z,8.73
2019-03-03T14:18:22.128Z,8.20
2019-03-03T14:20:52.010Z,8.07
2019-03-03T14:23:24.189Z,7.80
2019-03-03T14:25:53.928Z,7.47
2019-03-03T14:28:23.948Z,7.90
2019-03-03T14:30:54.322Z,7.20
2019-03-03T14:33:24.252Z,7.00
2019-03-03T14:35:53.971Z,6.30
2019-03-03T14:38:23.740Z,7.10
2019-03-03T14:40:53.534Z,6.70
2019-03-03T14:43:23.392Z,6.37
2019-03-03T14:45:53.229Z,6.93
2019-03-03T14:48:23.227Z,6.10
2019-03-03T14:50:53.273Z,6.87
2019-03-03T14:53:23.560Z,7.00
2019-03-03T14:55:53.507Z,6.03
2019-03-03T14:58:23.419Z,7.30
2019-03-03T15:00:54.137Z,7.30
2019-03-03T15:03:25.071Z,7.37
2019-03-03T15:05:55.297Z,6.60
2019-03-03T15:08:25.181Z,6.67
2019-03-03T15:10:55.020Z,7.23
2019-03-03T15:13:24.800Z,6.23
2019-03-03T15:15:54.946Z,6.27
2019-03-03T15:18:24.872Z,7.03
2019-03-03T15:20:54.791Z,7.40
2019-03-03T15:23:26.394Z,7.03
2019-03-03T15:25:56.250Z,7.50
2019-03-03T15:28:26.265Z,6.87
2019-03-03T15:30:57.296Z,6.07
2019-03-03T15:33:27.727Z,8.30
2019-03-03T15:35:57.553Z,7.90
2019-03-03T15:38:27.318Z,8.27
2019-03-03T15:40:57.098Z,7.73
2019-03-03T15:43:28.386Z,8.33
2019-03-03T15:45:58.241Z,7.93
2019-03-03T15:48:32.080Z,8.53
2019-03-03T15:51:01.891Z,7.70
2019-03-03T15:53:31.710Z,6.90
2019-03-03T15:56:01.717Z,8.27
2019-03-03T15:58:31.461Z,7.17
2019-03-03T16:01:01.437Z,8.63
2019-03-03T16:03:31.307Z,9.20
2019-03-03T16:06:01.378Z,7.10
2019-03-03T16:08:40.417Z,9.20
2019-03-03T16:11:10.386Z,7.93
2019-03-03T16:13:40.171Z,7.90
2019-03-03T16:16:12.741Z,8.87
2019-03-03T16:18:44.005Z,8.43
2019-03-03T16:21:13.729Z,8.57
2019-03-03T16:23:45.582Z,8.97
2019-03-03T16:26:18.513Z,7.70
2019-03-03T16:28:48.270Z,7.83
2019-03-03T16:31:18.088Z,8.87
2019-03-03T16:33:47.867Z,8.03
2019-03-03T16:36:17.619Z,7.53
2019-03-03T16:38:47.390Z,8.20
2019-03-03T16:41:17.155Z,8.43
2019-03-03T16:43:46.998Z,7.83
2019-03-03T16:46:16.723Z,7.87
2019-03-03T16:48:47.080Z,7.97
2019-03-03T16:51:16.899Z,7.63
2019-03-03T16:53:46.749Z,7.57
2019-03-03T16:56:16.620Z,8.07
2019-03-03T16:58:46.401Z,8.53
2019-03-03T17:01:16.294Z,7.97
2019-03-03T17:03:46.208Z,7.47
2019-03-03T17:06:16.208Z,7.63
2019-03-03T17:08:46.124Z,7.93
2019-03-03T17:11:16.152Z,8.10
2019-03-03T17:13:46.075Z,7.17
2019-03-03T17:16:17.118Z,7.87
2019-03-03T17:18:47.207Z,8.70
2019-03-03T17:21:17.134Z,8.87
2019-03-03T17:24:59.987Z,9.30
2019-03-03T17:26:28.139Z,9.57
2019-03-03T17:28:59.123Z,9.03
2019-03-03T17:31:28.999Z,9.00
2019-03-03T17:33:59.180Z,8.63
2019-03-03T17:36:29.339Z,8.50
2019-03-03T17:38:59.517Z,9.17
2019-03-03T17:41:29.354Z,9.10
2019-03-03T17:43:59.447Z,7.83
2019-03-03T17:46:29.291Z,8.57
2019-03-03T17:49:00.589Z,8.50
2019-03-03T17:51:29.622Z,7.43
2019-03-03T17:53:59.594Z,8.30
2019-03-03T17:56:29.415Z,7.53
2019-03-03T17:59:01.721Z,7.77
2019-03-03T18:01:34.808Z,8.47
2019-03-03T18:04:04.454Z,8.30
2019-03-03T18:06:38.689Z,7.83
2019-03-03T18:09:08.095Z,8.33
2019-03-03T18:11:37.963Z,9.20
2019-03-03T18:14:08.066Z,8.73
2019-03-03T18:16:43.981Z,8.87
2019-03-03T18:19:17.549Z,8.30
2019-03-03T18:21:47.444Z,9.00
2019-03-03T18:24:17.298Z,8.83
2019-03-03T18:26:47.168Z,8.00
2019-03-03T18:29:17.040Z,8.87
2019-03-03T18:31:47.088Z,8.90
2019-03-03T18:34:16.857Z,9.03
2019-03-03T18:36:46.691Z,8.77
2019-03-03T18:39:16.605Z,8.87
2019-03-03T18:41:46.439Z,8.83
2019-03-03T18:44:16.316Z,8.13
2019-03-03T18:46:46.217Z,9.20
2019-03-03T18:49:17.316Z,8.77
2019-03-03T18:51:47.280Z,9.37
2019-03-03T18:54:17.081Z,8.43
2019-03-03T18:56:46.946Z,8.57
2019-03-03T18:59:16.692Z,9.13
2019-03-03T19:01:46.528Z,9.43
2019-03-03T19:04:17.981Z,9.90
2019-03-03T19:06:48.019Z,10.53
2019-03-03T19:09:19.754Z,9.67
2019-03-03T19:11:49.761Z,10.83
2019-03-03T19:14:28.051Z,9.43
2019-03-03T19:16:51.073Z,9.63
2019-03-03T19:19:21.938Z,10.20
2019-03-03T19:21:51.992Z,9.97
2019-03-03T19:24:21.800Z,9.70
2019-03-03T19:26:51.127Z,8.43
2019-03-03T19:29:21.120Z,8.90
2019-03-03T19:31:50.449Z,8.57
2019-03-03T19:34:21.665Z,8.87
2019-03-03T19:36:50.898Z,8.83
2019-03-03T19:39:20.796Z,8.60
2019-03-03T19:41:51.028Z,8.27
2019-03-03T19:44:20.172Z,9.10
2019-03-03T19:46:50.632Z,9.33
2019-03-03T19:49:20.883Z,8.93
2019-03-03T19:51:50.950Z,8.80
2019-03-03T19:54:20.649Z,8.67
2019-03-03T19:56:50.513Z,8.57
2019-03-03T19:59:20.309Z,7.80
2019-03-03T20:01:50.117Z,8.93
2019-03-03T20:04:19.857Z,8.13
2019-03-03T20:06:49.990Z,9.27
2019-03-03T20:09:20.625Z,8.80
2019-03-03T20:11:50.364Z,8.47
2019-03-03T20:14:21.249Z,8.40
2019-03-03T20:16:51.795Z,9.50
2019-03-03T20:19:21.531Z,8.37
2019-03-03T20:21:51.326Z,9.07
2019-03-03T20:24:21.089Z,9.50
2019-03-03T20:26:50.918Z,9.57
2019-03-03T20:29:20.749Z,7.97
2019-03-03T20:31:50.486Z,8.70
2019-03-03T20:34:22.799Z,9.23
2019-03-03T20:36:52.557Z,8.73
2019-03-03T20:39:22.420Z,9.40
2019-03-03T20:41:52.457Z,10.87
2019-03-03T20:44:24.904Z,9.63
2019-03-03T20:46:53.993Z,9.43
2019-03-03T20:49:23.980Z,9.83
2019-03-03T20:51:55.160Z,9.50
2019-03-03T20:54:24.938Z,9.83
2019-03-03T20:56:54.021Z,10.67
2019-03-03T20:59:23.734Z,9.77
2019-03-03T21:01:53.445Z,8.83
2019-03-03T21:04:23.549Z,9.57
2019-03-03T21:06:53.375Z,7.90
2019-03-03T21:09:24.424Z,9.17
2019-03-03T21:11:54.628Z,8.77
2019-03-03T21:14:24.470Z,7.37
2019-03-03T21:16:54.266Z,8.03
2019-03-03T21:19:24.048Z,9.27
2019-03-03T21:21:54.093Z,9.20
2019-03-03T21:24:24.031Z,8.87
2019-03-03T21:26:55.900Z,9.00
2019-03-03T21:29:25.899Z,8.60
2019-03-03T21:31:55.648Z,8.03
2019-03-03T21:34:25.423Z,7.87
2019-03-03T21:36:55.209Z,8.90
2019-03-03T21:39:25.031Z,8.60
2019-03-03T21:41:55.147Z,7.93
2019-03-03T21:44:24.935Z,7.03
2019-03-03T21:46:54.699Z,8.43
2019-03-03T21:49:26.788Z,8.30
2019-03-03T21:51:56.587Z,8.07
2019-03-03T21:54:26.367Z,7.60
2019-03-03T21:56:56.225Z,8.13
2019-03-03T21:59:25.856Z,7.93
2019-03-03T22:01:55.746Z,8.30
2019-03-03T22:04:25.591Z,8.63
2019-03-03T22:06:55.395Z,8.43
2019-03-03T22:09:25.300Z,6.93
2019-03-03T22:11:56.507Z,7.77
2019-03-03T22:14:26.231Z,8.17
2019-03-03T22:16:55.925Z,7.40
2019-03-03T22:19:25.761Z,7.77
2019-03-03T22:21:56.222Z,8.13
2019-03-03T22:24:26.209Z,8.10
2019-03-03T22:26:56.034Z,7.57
2019-03-03T22:29:26.406Z,7.13
2019-03-03T22:31:56.203Z,7.80
2019-03-03T22:34:26.055Z,7.17
2019-03-03T22:36:57.033Z,7.60
2019-03-03T22:39:26.845Z,7.07
2019-03-03T22:41:56.854Z,7.67
2019-03-03T22:44:26.569Z,6.43
2019-03-03T22:46:56.332Z,7.33
2019-03-03T22:49:26.060Z,7.70
2019-03-03T22:51:55.859Z,7.33
2019-03-03T22:54:25.628Z,8.00
2019-03-03T22:56:55.379Z,7.73
2019-03-03T22:59:25.159Z,7.43
2019-03-03T23:01:54.869Z,7.70
2019-03-03T23:04:59.502Z,7.40
2019-03-03T23:08:00.424Z,7.83
2019-03-03T23:10:42.684Z,8.17
2019-03-03T23:13:30.830Z,7.93
2019-03-03T23:16:48.650Z,8.03
2019-03-03T23:20:01.958Z,7.30
2019-03-03T23:23:06.653Z,7.10
2019-03-03T23:25:53.833Z,7.40
2019-03-03T23:28:24.662Z,7.63
2019-03-03T23:30:55.468Z,7.03
2019-03-03T23:33:25.231Z,7.33
2019-03-03T23:35:54.934Z,7.40
2019-03-03T23:38:24.939Z,7.53
2019-03-03T23:40:54.687Z,6.83
2019-03-03T23:43:24.527Z,6.90
2019-03-03T23:45:54.390Z,7.63
2019-03-03T23:48:24.142Z,7.23
2019-03-03T23:50:53.912Z,7.23
2019-03-03T23:53:23.623Z,7.47
2019-03-03T23:55:53.445Z,7.30
2019-03-03T23:58:23.189Z,7.03
